createdAt,value
2024-03-06T00:01:47.954Z,95537.75
2024-03-06T00:04:16.185Z,95535.06
2024-03-06T00:06:43.301Z,95537.69
2024-03-06T00:09:09.616Z,95541.97
2024-03-06T00:11:35.958Z,95537.81
2024-03-06T00:14:02.589Z,95537.03
2024-03-06T00:16:28.942Z,95529.44
2024-03-06T00:18:55.284Z,95531.06
2024-03-06T00:21:21.716Z,95530.22
2024-03-06T00:23:48.041Z,95539.75
2024-03-06T00:26:14.407Z,95535.09
2024-03-06T00:28:40.922Z,95537.44
2024-03-06T00:31:07.250Z,95537.25
2024-03-06T00:33:33.568Z,95535.75
2024-03-06T00:35:59.886Z,95539.38
2024-03-06T00:38:26.189Z,95539.38
2024-03-06T00:40:52.600Z,95541.75
2024-03-06T00:43:18.967Z,95544.47
2024-03-06T00:45:45.275Z,95546.56
2024-03-06T00:48:11.629Z,95550.16
2024-03-06T00:50:37.979Z,95554.03
2024-03-06T00:53:04.324Z,95554.56
2024-03-06T00:55:30.693Z,95548.94
2024-03-06T00:57:57.025Z,95551.66
2024-03-06T01:00:23.338Z,95554.13
2024-03-06T01:02:49.674Z,95555.31
2024-03-06T01:05:16.080Z,95557.25
2024-03-06T01:07:42.644Z,95550.41
2024-03-06T01:10:08.990Z,95551.56
2024-03-06T01:12:35.330Z,95547.91
2024-03-06T01:15:01.633Z,95558.38
2024-03-06T01:17:28.006Z,95556.47
2024-03-06T01:19:54.434Z,95549.00
2024-03-06T01:22:20.762Z,95559.00
2024-03-06T01:24:47.085Z,95558.88
2024-03-06T01:27:13.440Z,95563.69
2024-03-06T01:29:39.864Z,95571.88
2024-03-06T01:32:06.237Z,95568.41
2024-03-06T01:34:32.701Z,95559.50
2024-03-06T01:36:59.039Z,95561.53
2024-03-06T01:39:25.355Z,95563.13
2024-03-06T01:41:51.764Z,95567.03
2024-03-06T01:44:18.110Z,95572.09
2024-03-06T01:46:44.492Z,95567.06
2024-03-06T01:49:10.962Z,95570.16
2024-03-06T01:51:37.305Z,95563.63
2024-03-06T01:54:03.621Z,95572.03
2024-03-06T01:56:29.976Z,95563.47
2024-03-06T01:58:58.357Z,95558.91
2024-03-06T02:01:24.944Z,95559.91
2024-03-06T02:03:51.331Z,95564.28
2024-03-06T02:06:17.655Z,95558.22
2024-03-06T02:08:43.969Z,95563.69
2024-03-06T02:11:10.501Z,95566.88
2024-03-06T02:13:36.880Z,95561.44
2024-03-06T02:16:03.257Z,95565.91
2024-03-06T02:18:29.608Z,95568.59
2024-03-06T02:20:56.159Z,95576.34
2024-03-06T02:23:22.553Z,95577.31
2024-03-06T02:25:49.016Z,95578.16
2024-03-06T02:28:15.401Z,95577.34
2024-03-06T02:30:41.715Z,95577.63
2024-03-06T02:33:08.316Z,95578.66
2024-03-06T02:35:34.793Z,95571.13
2024-03-06T02:38:01.170Z,95577.31
2024-03-06T02:40:27.680Z,95573.25
2024-03-06T02:42:53.996Z,95574.66
2024-03-06T02:45:20.328Z,95578.66
2024-03-06T02:47:46.672Z,95579.09
2024-03-06T02:50:13.153Z,95581.69
2024-03-06T02:52:39.648Z,95586.06
2024-03-06T02:55:06.012Z,95580.38
2024-03-06T02:57:32.346Z,95583.03
2024-03-06T02:59:58.650Z,95579.97
2024-03-06T03:02:25.124Z,95574.41
2024-03-06T03:04:51.496Z,95567.25
2024-03-06T03:07:17.826Z,95570.75
2024-03-06T03:09:44.244Z,95577.91
2024-03-06T03:12:10.573Z,95575.19
2024-03-06T03:14:36.893Z,95572.66
2024-03-06T03:17:03.456Z,95577.97
2024-03-06T03:19:29.800Z,95582.09
2024-03-06T03:21:56.184Z,95574.53
2024-03-06T03:24:22.847Z,95578.59
2024-03-06T03:26:49.270Z,95586.66
2024-03-06T03:29:15.644Z,95584.22
2024-03-06T03:31:42.265Z,95587.09
2024-03-06T03:34:08.581Z,95583.09
2024-03-06T03:36:34.900Z,95586.13
2024-03-06T03:39:01.406Z,95580.28
2024-03-06T03:41:30.483Z,95588.50
2024-03-06T03:43:56.807Z,95592.38
2024-03-06T03:46:23.292Z,95592.00
2024-03-06T03:48:49.596Z,95592.78
2024-03-06T03:51:15.896Z,95596.72
2024-03-06T03:53:42.302Z,95600.72
2024-03-06T03:56:09.716Z,95596.91
2024-03-06T03:58:36.099Z,95596.22
2024-03-06T04:01:02.520Z,95597.94
2024-03-06T04:03:28.831Z,95602.34
2024-03-06T04:05:55.133Z,95604.13
2024-03-06T04:08:21.509Z,95607.97
2024-03-06T04:10:47.820Z,95599.22
2024-03-06T04:13:14.199Z,95609.91
2024-03-06T04:15:40.648Z,95609.97
2024-03-06T04:18:06.972Z,95601.00
2024-03-06T04:20:33.340Z,95608.44
2024-03-06T04:22:59.698Z,95605.41
2024-03-06T04:25:26.079Z,95613.16
2024-03-06T04:27:52.387Z,95619.88
2024-03-06T04:30:18.737Z,95612.34
2024-03-06T04:32:45.378Z,95615.06
2024-03-06T04:35:11.742Z,95621.94
2024-03-06T04:37:38.103Z,95619.09
2024-03-06T04:40:04.420Z,95614.84
2024-03-06T04:42:30.752Z,95626.50
2024-03-06T04:44:57.081Z,95627.72
2024-03-06T04:47:23.391Z,95630.75
2024-03-06T04:49:49.712Z,95631.13
2024-03-06T04:52:16.172Z,95638.03
2024-03-06T04:54:42.473Z,95637.03
2024-03-06T04:57:08.798Z,95636.97
2024-03-06T04:59:35.149Z,95639.84
2024-03-06T05:02:01.519Z,95638.03
2024-03-06T05:59:05.168Z,95689.66
2024-03-06T06:01:31.565Z,95694.31
2024-03-06T06:03:57.912Z,95684.88
2024-03-06T06:06:24.225Z,95695.75
2024-03-06T06:08:50.648Z,95688.50
2024-03-06T06:11:17.047Z,95691.75
2024-03-06T06:13:43.396Z,95694.19
2024-03-06T06:16:09.840Z,95686.66
2024-03-06T06:18:36.192Z,95689.59
2024-03-06T06:21:02.536Z,95693.03
2024-03-06T06:23:28.949Z,95694.56
2024-03-06T06:25:55.293Z,95700.59
2024-03-06T06:28:21.637Z,95707.25
2024-03-06T06:30:48.075Z,95705.50
2024-03-06T06:33:14.547Z,95707.56
2024-03-06T06:35:40.990Z,95711.59
2024-03-06T06:38:07.634Z,95709.38
2024-03-06T06:40:33.965Z,95715.34
2024-03-06T06:43:00.315Z,95708.63
2024-03-06T06:45:26.856Z,95708.63
2024-03-06T06:47:53.342Z,95718.31
2024-03-06T06:50:19.780Z,95715.09
2024-03-06T06:52:46.209Z,95730.31
2024-03-06T06:55:12.561Z,95730.88
2024-03-06T06:57:38.946Z,95735.75
2024-03-06T07:00:05.436Z,95724.28
2024-03-06T07:02:31.837Z,95728.50
2024-03-06T07:04:58.161Z,95733.03
2024-03-06T07:07:24.681Z,95740.03
2024-03-06T07:09:50.998Z,95738.22
2024-03-06T07:12:17.319Z,95740.56
2024-03-06T07:14:43.832Z,95740.13
2024-03-06T07:17:10.339Z,95742.41
2024-03-06T07:19:36.773Z,95742.75
2024-03-06T07:22:03.167Z,95747.75
2024-03-06T07:24:29.476Z,95747.75
2024-03-06T07:26:55.814Z,95745.59
2024-03-06T07:29:22.720Z,95750.16
2024-03-06T07:31:49.071Z,95753.28
2024-03-06T07:34:15.401Z,95753.75
2024-03-06T07:36:42.535Z,95751.19
2024-03-06T07:39:08.843Z,95749.22
2024-03-06T07:41:35.258Z,95751.88
2024-03-06T07:44:01.743Z,95754.72
2024-03-06T07:46:28.099Z,95748.19
2024-03-06T07:48:54.421Z,95752.75
2024-03-06T07:51:20.983Z,95758.31
2024-03-06T07:53:47.401Z,95759.47
2024-03-06T07:56:13.864Z,95764.19
2024-03-06T07:58:40.292Z,95766.66
2024-03-06T08:01:06.616Z,95760.34
2024-03-06T08:03:32.951Z,95772.44
2024-03-06T08:05:59.325Z,95770.16
2024-03-06T08:08:25.740Z,95769.13
2024-03-06T08:10:52.202Z,95770.59
2024-03-06T08:13:18.957Z,95774.13
2024-03-06T08:15:45.400Z,95778.72
2024-03-06T08:18:12.046Z,95781.13
2024-03-06T08:20:38.477Z,95780.72
2024-03-06T08:23:04.860Z,95774.25
2024-03-06T08:25:31.207Z,95782.13
2024-03-06T08:27:57.566Z,95772.69
2024-03-06T08:30:23.939Z,95786.25
2024-03-06T08:32:50.454Z,95788.91
2024-03-06T08:35:20.212Z,95789.53
2024-03-06T08:37:48.205Z,95782.72
2024-03-06T08:40:14.521Z,95785.72
2024-03-06T08:42:40.885Z,95787.31
2024-03-06T08:45:07.198Z,95787.03
2024-03-06T08:47:33.610Z,95786.31
2024-03-06T08:50:00.194Z,95788.28
2024-03-06T08:52:26.596Z,95786.31
2024-03-06T08:54:52.914Z,95788.03
2024-03-06T08:57:19.390Z,95791.13
2024-03-06T08:59:45.751Z,95791.22
2024-03-06T09:02:12.135Z,95794.41
2024-03-06T09:04:38.527Z,95793.81
2024-03-06T09:07:04.848Z,95794.47
2024-03-06T09:09:31.160Z,95797.81
2024-03-06T09:11:57.591Z,95798.13
2024-03-06T09:14:23.976Z,95797.91
2024-03-06T09:16:50.337Z,95799.66
2024-03-06T09:19:19.390Z,95799.53
2024-03-06T09:21:45.985Z,95794.31
2024-03-06T09:24:12.294Z,95796.47
2024-03-06T09:26:38.837Z,95797.41
2024-03-06T09:29:05.234Z,95799.56
2024-03-06T09:31:31.561Z,95801.41
2024-03-06T09:33:58.122Z,95804.06
2024-03-06T09:36:24.502Z,95801.81
2024-03-06T09:38:50.984Z,95808.78
2024-03-06T09:41:17.448Z,95809.56
2024-03-06T09:43:43.778Z,95807.09
2024-03-06T09:46:10.143Z,95804.41
2024-03-06T09:48:39.248Z,95794.09
2024-03-06T09:51:06.605Z,95802.94
2024-03-06T09:53:32.930Z,95804.09
2024-03-06T09:55:59.318Z,95813.06
2024-03-06T09:58:25.658Z,95808.94
2024-03-06T10:00:51.999Z,95803.91
2024-03-06T10:03:18.475Z,95796.25
2024-03-06T10:05:44.882Z,95795.16
2024-03-06T10:08:11.273Z,95801.41
2024-03-06T10:10:37.973Z,95804.19
2024-03-06T10:13:04.330Z,95795.66
2024-03-06T10:15:30.683Z,95804.59
2024-03-06T10:17:57.228Z,95802.22
2024-03-06T10:20:23.766Z,95804.69
2024-03-06T10:22:50.834Z,95807.09
2024-03-06T10:25:17.874Z,95806.28
2024-03-06T10:27:44.188Z,95803.16
2024-03-06T10:30:10.490Z,95809.44
2024-03-06T10:32:36.998Z,95810.63
2024-03-06T10:35:03.410Z,95810.75
2024-03-06T10:37:29.789Z,95808.44
2024-03-06T10:39:56.272Z,95811.88
2024-03-06T10:42:22.579Z,95808.75
2024-03-06T10:44:48.963Z,95811.44
2024-03-06T10:47:15.462Z,95808.47
2024-03-06T10:49:41.792Z,95805.38
2024-03-06T10:52:08.383Z,95807.66
2024-03-06T10:54:34.971Z,95815.47
2024-03-06T10:57:01.295Z,95814.44
2024-03-06T10:59:27.635Z,95814.72
2024-03-06T11:01:54.093Z,95814.81
2024-03-06T11:04:20.462Z,95814.03
2024-03-06T11:06:46.820Z,95811.13
2024-03-06T11:09:13.238Z,95815.25
2024-03-06T11:11:39.584Z,95821.69
2024-03-06T11:14:05.977Z,95809.50
2024-03-06T11:16:32.448Z,95814.34
2024-03-06T11:18:58.768Z,95814.56
2024-03-06T11:21:25.123Z,95806.28
2024-03-06T11:23:51.565Z,95805.00
2024-03-06T11:26:17.942Z,95805.22
2024-03-06T11:28:44.248Z,95798.88
2024-03-06T11:31:10.699Z,95808.81
2024-03-06T11:33:37.470Z,95810.97
2024-03-06T11:36:05.082Z,95807.47
2024-03-06T11:38:31.656Z,95804.69
2024-03-06T11:40:57.998Z,95809.78
2024-03-06T11:43:24.306Z,95808.47
2024-03-06T11:45:50.765Z,95805.91
2024-03-06T11:48:17.127Z,95803.53
2024-03-06T11:50:43.520Z,95802.56
2024-03-06T11:53:11.603Z,95799.13
2024-03-06T11:55:38.119Z,95803.88
2024-03-06T11:58:04.495Z,95790.88
2024-03-06T12:00:30.964Z,95796.97
2024-03-06T12:02:57.350Z,95802.09
2024-03-06T12:05:23.753Z,95801.38
2024-03-06T12:07:50.122Z,95800.28
2024-03-06T12:10:16.457Z,95807.44
2024-03-06T12:12:42.797Z,95794.72
2024-03-06T12:15:09.153Z,95800.31
2024-03-06T12:17:35.515Z,95802.44
2024-03-06T12:20:01.936Z,95802.06
2024-03-06T12:22:28.336Z,95804.19
2024-03-06T12:24:54.655Z,95805.66
2024-03-06T12:27:20.960Z,95795.88
2024-03-06T12:29:47.512Z,95796.06
2024-03-06T12:32:13.926Z,95796.09
2024-03-06T12:34:40.259Z,95785.84
2024-03-06T12:37:06.628Z,95786.13
2024-03-06T12:39:32.941Z,95782.63
2024-03-06T12:41:59.247Z,95782.72
2024-03-06T12:44:25.745Z,95784.41
2024-03-06T12:46:52.083Z,95782.28
2024-03-06T12:49:18.440Z,95786.78
2024-03-06T12:51:44.889Z,95787.56
2024-03-06T12:54:11.273Z,95785.03
2024-03-06T12:56:37.644Z,95778.06
2024-03-06T12:59:04.294Z,95778.16
2024-03-06T13:01:30.774Z,95773.50
2024-03-06T13:04:04.940Z,95775.66
2024-03-06T13:06:32.790Z,95772.19
2024-03-06T13:08:59.104Z,95772.34
2024-03-06T13:11:25.567Z,95767.13
2024-03-06T13:13:52.053Z,95759.78
2024-03-06T13:16:18.346Z,95759.50
2024-03-06T13:18:44.754Z,95763.81
2024-03-06T13:21:11.258Z,95770.19
2024-03-06T13:23:37.694Z,95763.00
2024-03-06T13:26:04.050Z,95759.88
2024-03-06T13:28:30.447Z,95755.13
2024-03-06T13:30:56.774Z,95761.06
2024-03-06T13:33:23.224Z,95757.31
2024-03-06T13:35:49.661Z,95755.84
2024-03-06T13:38:16.013Z,95757.84
2024-03-06T13:40:42.332Z,95757.34
2024-03-06T13:43:09.216Z,95758.22
2024-03-06T13:45:35.527Z,95749.94
2024-03-06T13:48:01.979Z,95754.25
2024-03-06T13:50:28.484Z,95748.94
2024-03-06T13:52:54.807Z,95749.22
2024-03-06T13:55:21.132Z,95751.53
2024-03-06T13:57:47.581Z,95759.28
2024-03-06T14:00:13.938Z,95757.72
2024-03-06T14:02:40.388Z,95757.72
2024-03-06T14:05:06.821Z,95756.94
2024-03-06T14:07:33.137Z,95753.22
2024-03-06T14:10:01.966Z,95759.34
2024-03-06T14:12:29.823Z,95764.94
2024-03-06T14:14:56.176Z,95762.28
2024-03-06T14:17:22.568Z,95761.75
2024-03-06T14:19:48.940Z,95755.31
2024-03-06T14:22:15.333Z,95762.25
2024-03-06T14:24:41.638Z,95764.41
2024-03-06T14:27:08.022Z,95761.22
2024-03-06T14:29:34.473Z,95753.16
2024-03-06T14:32:00.824Z,95761.91
2024-03-06T14:34:27.250Z,95765.84
2024-03-06T14:36:53.564Z,95772.25
2024-03-06T14:39:19.875Z,95771.72
2024-03-06T14:41:47.427Z,95772.56
2024-03-06T14:44:13.765Z,95778.44
2024-03-06T14:46:40.101Z,95777.81
2024-03-06T14:49:06.545Z,95773.75
2024-03-06T14:51:32.852Z,95781.09
2024-03-06T14:53:59.160Z,95777.06
2024-03-06T14:56:25.627Z,95785.03
2024-03-06T14:58:51.971Z,95779.16
2024-03-06T15:01:18.299Z,95770.16
2024-03-06T15:03:44.772Z,95769.94
2024-03-06T15:06:11.088Z,95774.00
2024-03-06T15:08:38.936Z,95770.31
2024-03-06T15:11:05.565Z,95765.78
2024-03-06T15:13:31.915Z,95769.19
2024-03-06T15:15:58.222Z,95768.34
2024-03-06T15:18:25.438Z,95765.19
2024-03-06T15:20:51.951Z,95763.66
2024-03-06T15:23:18.340Z,95770.13
2024-03-06T15:25:44.798Z,95763.41
2024-03-06T15:28:11.120Z,95761.03
2024-03-06T15:30:37.423Z,95765.28
2024-03-06T15:33:03.891Z,95762.63
2024-03-06T15:35:30.354Z,95764.00
2024-03-06T15:37:56.736Z,95778.13
2024-03-06T15:40:23.235Z,95765.88
2024-03-06T15:42:49.535Z,95763.41
2024-03-06T15:45:15.852Z,95764.22
2024-03-06T15:47:42.387Z,95765.72
2024-03-06T15:50:08.775Z,95766.41
2024-03-06T15:52:35.134Z,95766.88
2024-03-06T15:55:01.538Z,95769.28
2024-03-06T15:57:27.878Z,95770.88
2024-03-06T15:59:54.221Z,95770.91
2024-03-06T16:02:20.777Z,95765.53
2024-03-06T16:04:47.110Z,95772.22
2024-03-06T16:07:13.447Z,95770.88
2024-03-06T16:09:39.949Z,95773.56
2024-03-06T16:12:06.339Z,95778.09
2024-03-06T16:14:32.786Z,95774.13
2024-03-06T16:16:59.397Z,95773.81
2024-03-06T16:19:34.273Z,95769.00
2024-03-06T16:22:04.317Z,95771.03
2024-03-06T16:24:30.640Z,95772.22
2024-03-06T16:26:56.984Z,95785.53
2024-03-06T16:29:23.562Z,95778.59
2024-03-06T16:31:49.902Z,95776.50
2024-03-06T16:34:16.204Z,95772.22
2024-03-06T16:36:42.646Z,95770.34
2024-03-06T16:39:09.034Z,95773.50
2024-03-06T16:41:35.401Z,95776.72
2024-03-06T16:44:01.895Z,95779.84
2024-03-06T16:46:28.222Z,95775.28
2024-03-06T16:48:54.556Z,95777.66
2024-03-06T16:51:20.969Z,95783.25
2024-03-06T16:53:47.360Z,95770.16
2024-03-06T16:56:13.801Z,95778.44
2024-03-06T16:58:40.183Z,95774.44
2024-03-06T17:01:06.622Z,95767.94
2024-03-06T17:03:33.003Z,95775.69
2024-03-06T17:05:59.783Z,95774.13
2024-03-06T17:08:26.137Z,95775.41
2024-03-06T17:10:52.621Z,95772.75
2024-03-06T17:13:19.080Z,95770.81
2024-03-06T17:15:45.466Z,95769.19
2024-03-06T17:18:11.882Z,95769.50
2024-03-06T17:20:40.698Z,95764.03
2024-03-06T17:23:07.102Z,95774.91
2024-03-06T17:25:33.447Z,95772.19
2024-03-06T17:28:00.161Z,95777.53
2024-03-06T17:30:26.547Z,95786.31
2024-03-06T17:32:53.172Z,95778.28
2024-03-06T17:35:19.858Z,95784.69
2024-03-06T17:37:46.193Z,95792.66
2024-03-06T17:40:12.539Z,95784.16
2024-03-06T17:42:38.864Z,95790.31
2024-03-06T17:45:05.211Z,95792.66
2024-03-06T17:47:31.594Z,95799.44
2024-03-06T17:49:58.012Z,95785.31
2024-03-06T17:52:24.329Z,95790.69
2024-03-06T17:54:50.634Z,95795.75
2024-03-06T17:57:17.079Z,95798.06
2024-03-06T17:59:43.408Z,95793.91
2024-03-06T18:02:09.870Z,95806.53
2024-03-06T18:04:36.275Z,95799.44
2024-03-06T18:07:02.609Z,95799.38
2024-03-06T18:09:28.941Z,95807.69
2024-03-06T18:11:55.515Z,95801.06
2024-03-06T18:14:21.913Z,95803.09
2024-03-06T18:16:48.267Z,95804.41
2024-03-06T18:19:14.636Z,95799.91
2024-03-06T18:21:42.812Z,95802.22
2024-03-06T18:24:11.201Z,95811.00
2024-03-06T18:26:37.725Z,95800.81
2024-03-06T18:29:04.194Z,95799.28
2024-03-06T18:31:30.585Z,95799.25
2024-03-06T18:33:57.037Z,95800.03
2024-03-06T18:36:23.390Z,95803.72
2024-03-06T18:38:49.726Z,95801.22
2024-03-06T18:41:16.243Z,95796.13
2024-03-06T18:43:44.891Z,95799.09
2024-03-06T18:46:12.610Z,95797.34
2024-03-06T18:48:39.098Z,95799.53
2024-03-06T18:51:05.514Z,95797.56
2024-03-06T18:53:31.892Z,95801.97
2024-03-06T18:55:58.434Z,95802.94
2024-03-06T18:58:24.768Z,95797.88
2024-03-06T19:00:51.103Z,95797.09
2024-03-06T19:03:17.737Z,95795.81
2024-03-06T19:05:44.109Z,95792.56
2024-03-06T19:08:10.475Z,95793.66
2024-03-06T19:10:37.127Z,95798.91
2024-03-06T19:13:03.432Z,95798.53
2024-03-06T19:15:29.791Z,95791.81
2024-03-06T19:17:56.299Z,95794.28
2024-03-06T19:20:22.705Z,95791.28
2024-03-06T19:22:49.053Z,95790.22
2024-03-06T19:25:17.104Z,95790.47
2024-03-06T19:27:45.007Z,95786.50
2024-03-06T19:30:11.312Z,95781.94
2024-03-06T19:32:46.218Z,95779.75
2024-03-06T19:35:17.411Z,95781.09
2024-03-06T19:37:43.765Z,95777.13
2024-03-06T19:40:10.084Z,95775.34
2024-03-06T19:42:36.408Z,95766.22
2024-03-06T19:45:02.849Z,95770.03
2024-03-06T19:47:29.204Z,95766.84
2024-03-06T19:49:55.538Z,95757.63
2024-03-06T19:52:22.129Z,95757.22
2024-03-06T19:54:48.477Z,95758.94
2024-03-06T19:57:14.846Z,95758.13
2024-03-06T19:59:41.489Z,95756.78
2024-03-06T20:02:07.982Z,95752.44
2024-03-06T20:04:34.343Z,95770.22
2024-03-06T20:07:00.745Z,95758.06
2024-03-06T20:09:27.072Z,95760.25
2024-03-06T20:11:53.519Z,95762.09
2024-03-06T20:14:20.012Z,95767.06
2024-03-06T20:16:46.342Z,95766.41
2024-03-06T20:19:12.674Z,95764.25
2024-03-06T20:21:39.102Z,95764.69
2024-03-06T20:24:05.438Z,95762.50
2024-03-06T20:26:31.813Z,95767.56
2024-03-06T20:28:58.285Z,95763.31
2024-03-06T20:31:24.637Z,95767.22
2024-03-06T20:33:50.954Z,95760.03
2024-03-06T20:36:17.361Z,95764.72
2024-03-06T20:38:43.734Z,95758.31
2024-03-06T20:41:10.129Z,95759.44
2024-03-06T20:43:36.618Z,95770.78
2024-03-06T20:46:02.940Z,95766.03
2024-03-06T20:48:29.305Z,95767.66
2024-03-06T20:50:55.832Z,95759.78
2024-03-06T20:53:22.212Z,95756.59
2024-03-06T20:55:48.590Z,95766.88
2024-03-06T20:58:15.085Z,95761.75
2024-03-06T21:00:41.440Z,95766.00
2024-03-06T21:03:07.782Z,95760.69
2024-03-06T21:05:34.229Z,95759.88
2024-03-06T21:08:00.599Z,95757.44
2024-03-06T21:10:26.928Z,95750.16
2024-03-06T21:12:53.534Z,95745.72
2024-03-06T21:15:19.897Z,95748.59
2024-03-06T21:17:46.265Z,95750.31
2024-03-06T21:20:13.031Z,95752.88
2024-03-06T21:22:39.489Z,95749.56
2024-03-06T21:25:05.805Z,95751.19
2024-03-06T21:27:32.235Z,95750.38
2024-03-06T21:29:58.590Z,95747.91
2024-03-06T21:32:24.913Z,95744.53
2024-03-06T21:34:51.423Z,95749.97
2024-03-06T21:37:17.778Z,95744.13
2024-03-06T21:39:44.098Z,95748.41
2024-03-06T21:42:10.540Z,95752.16
2024-03-06T21:44:36.916Z,95749.91
2024-03-06T21:47:03.306Z,95743.38
2024-03-06T21:49:29.741Z,95745.75
2024-03-06T21:51:56.058Z,95740.22
2024-03-06T21:54:22.360Z,95741.25
2024-03-06T21:56:48.821Z,95740.44
2024-03-06T21:59:15.173Z,95739.41
2024-03-06T22:01:41.507Z,95735.88
2024-03-06T22:04:08.035Z,95736.28
2024-03-06T22:06:34.342Z,95732.13
2024-03-06T22:09:00.663Z,95728.81
2024-03-06T22:11:27.191Z,95730.25
2024-03-06T22:13:53.575Z,95723.91
2024-03-06T22:16:19.894Z,95727.53
2024-03-06T22:18:46.332Z,95724.00
2024-03-06T22:21:12.731Z,95721.59
2024-03-06T22:23:39.063Z,95710.28
2024-03-06T22:26:05.524Z,95715.56
2024-03-06T22:28:31.878Z,95712.44
2024-03-06T22:30:58.189Z,95719.41
2024-03-06T22:33:24.727Z,95705.47
2024-03-06T22:35:51.098Z,95700.31
2024-03-06T22:38:17.467Z,95709.94
2024-03-06T22:40:43.903Z,95707.28
2024-03-06T22:43:10.228Z,95703.84
2024-03-06T22:45:36.546Z,95702.31
2024-03-06T22:48:03.273Z,95703.53
2024-03-06T22:50:29.755Z,95696.94
2024-03-06T22:52:56.100Z,95696.53
2024-03-06T22:55:22.544Z,95689.31
2024-03-06T22:57:48.896Z,95689.06
2024-03-06T23:00:15.245Z,95689.88
2024-03-06T23:02:41.715Z,95678.47
2024-03-06T23:05:09.898Z,95673.91
2024-03-06T23:07:36.330Z,95672.22
2024-03-06T23:10:03.156Z,95672.28
2024-03-06T23:12:29.509Z,95670.22
2024-03-06T23:14:55.890Z,95665.06
2024-03-06T23:17:22.433Z,95661.63
2024-03-06T23:19:48.755Z,95659.72
2024-03-06T23:22:15.052Z,95666.44
2024-03-06T23:24:41.441Z,95664.19
2024-03-06T23:27:07.808Z,95667.50
2024-03-06T23:29:34.122Z,95661.84
2024-03-06T23:32:00.561Z,95662.41
2024-03-06T23:34:26.865Z,95664.03
2024-03-06T23:36:53.169Z,95664.59
2024-03-06T23:39:19.601Z,95665.69
2024-03-06T23:41:45.936Z,95672.69
2024-03-06T23:44:12.438Z,95665.59
2024-03-06T23:46:38.951Z,95671.53
2024-03-06T23:49:05.271Z,95660.06
2024-03-06T23:51:31.583Z,95668.22
2024-03-06T23:53:57.969Z,95673.28
2024-03-06T23:56:24.306Z,95669.72
2024-03-06T23:58:50.625Z,95671.00
